createdAt,value
2022-08-12T00:00:04.239Z,2.30
2022-08-12T00:00:59.411Z,2.00
2022-08-12T00:02:03.693Z,1.90
2022-08-12T00:02:51.520Z,1.80
2022-08-12T00:03:46.432Z,1.80
2022-08-12T00:04:41.649Z,1.90
2022-08-12T00:05:37.407Z,2.20
2022-08-12T00:06:33.613Z,2.00
2022-08-12T00:07:28.399Z,2.30
2022-08-12T00:08:32.035Z,2.20
2022-08-12T00:09:25.742Z,2.60
2022-08-12T00:10:15.839Z,2.20
2022-08-12T00:11:12.626Z,2.20
2022-08-12T00:12:04.837Z,1.70
2022-08-12T00:13:02.171Z,2.30
2022-08-12T00:13:57.237Z,2.20
2022-08-12T00:14:52.214Z,1.90
2022-08-12T00:15:47.264Z,2.10
2022-08-12T00:16:42.337Z,2.10
2022-08-12T00:17:37.349Z,1.70
2022-08-12T00:18:32.465Z,1.60
2022-08-12T00:19:27.546Z,1.90
2022-08-12T00:20:22.624Z,1.80
2022-08-12T00:21:17.684Z,1.60
2022-08-12T00:22:12.717Z,1.50
2022-08-12T00:23:07.781Z,1.80
2022-08-12T00:24:02.868Z,2.10
2022-08-12T00:24:57.907Z,1.60
2022-08-12T00:26:21.360Z,1.90
2022-08-12T00:26:49.876Z,1.80
2022-08-12T00:27:44.582Z,1.80
2022-08-12T00:28:40.054Z,2.00
2022-08-12T00:29:35.132Z,2.00
2022-08-12T00:30:30.281Z,1.80
2022-08-12T00:31:25.481Z,1.70
2022-08-12T00:32:35.287Z,2.00
2022-08-12T00:33:18.251Z,1.50
2022-08-12T00:34:12.545Z,1.90
2022-08-12T00:35:08.707Z,1.80
2022-08-12T00:36:03.499Z,1.60
2022-08-12T00:37:02.801Z,1.80
2022-08-12T00:37:55.483Z,1.80
2022-08-12T00:38:49.750Z,1.60
2022-08-12T00:39:45.541Z,1.90
2022-08-12T00:40:40.688Z,2.20
2022-08-12T00:41:36.043Z,1.70
2022-08-12T00:42:32.029Z,1.70
2022-08-12T00:43:27.095Z,1.90
2022-08-12T00:44:22.218Z,1.70
2022-08-12T00:45:18.522Z,1.70
2022-08-12T00:46:13.771Z,1.80
2022-08-12T00:47:09.434Z,1.60
2022-08-12T00:48:05.145Z,1.90
2022-08-12T00:49:01.870Z,1.90
2022-08-12T00:49:57.118Z,1.80
2022-08-12T00:50:52.257Z,1.70
2022-08-12T00:51:47.368Z,1.90
2022-08-12T00:52:42.345Z,1.90
2022-08-12T00:53:37.467Z,1.80
2022-08-12T00:54:32.606Z,2.30
2022-08-12T00:55:27.617Z,2.00
2022-08-12T00:56:22.681Z,1.70
2022-08-12T00:57:17.700Z,2.10
2022-08-12T00:58:12.695Z,1.60
2022-08-12T00:59:07.733Z,1.80
2022-08-12T01:00:02.801Z,1.60
2022-08-12T01:00:57.878Z,2.00
2022-08-12T01:02:10.386Z,1.90
2022-08-12T01:02:48.991Z,1.90
2022-08-12T01:03:43.064Z,2.10
2022-08-12T01:04:38.122Z,2.20
2022-08-12T01:05:33.146Z,1.90
2022-08-12T01:06:28.213Z,1.80
2022-08-12T01:07:26.647Z,1.90
2022-08-12T01:08:21.805Z,1.60
2022-08-12T01:09:16.990Z,1.90
2022-08-12T01:10:12.193Z,2.40
2022-08-12T01:11:07.340Z,2.00
2022-08-12T01:12:02.706Z,2.00
2022-08-12T01:13:19.466Z,2.00
2022-08-12T01:13:53.969Z,2.10
2022-08-12T01:14:48.127Z,2.00
2022-08-12T01:15:43.348Z,1.80
2022-08-12T01:16:38.476Z,1.90
2022-08-12T01:17:36.652Z,1.70
2022-08-12T01:18:31.768Z,2.00
2022-08-12T01:19:26.865Z,1.80
2022-08-12T01:20:22.012Z,1.70
2022-08-12T01:21:17.625Z,2.00
2022-08-12T01:22:12.757Z,2.00
2022-08-12T01:23:07.935Z,2.10
2022-08-12T01:24:29.745Z,2.00
2022-08-12T01:24:59.705Z,1.90
2022-08-12T01:25:56.209Z,1.80
2022-08-12T01:26:49.104Z,2.00
2022-08-12T01:27:44.306Z,2.00
2022-08-12T01:28:39.580Z,1.90
2022-08-12T01:29:34.847Z,2.00
2022-08-12T01:30:29.956Z,2.50
2022-08-12T01:31:25.148Z,1.90
2022-08-12T01:32:20.285Z,2.10
2022-08-12T01:33:15.565Z,2.00
2022-08-12T01:34:35.371Z,2.20
2022-08-12T01:35:06.846Z,2.00
2022-08-12T01:36:08.438Z,1.90
2022-08-12T01:36:57.170Z,2.10
2022-08-12T01:37:51.384Z,2.00
2022-08-12T01:38:46.458Z,1.50
2022-08-12T01:40:35.754Z,2.00
2022-08-12T01:40:39.114Z,2.20
2022-08-12T01:41:32.145Z,2.00
2022-08-12T01:42:27.122Z,1.90
2022-08-12T01:43:22.346Z,2.40
2022-08-12T01:44:20.572Z,1.90
2022-08-12T01:45:12.630Z,1.80
2022-08-12T01:46:07.979Z,1.80
2022-08-12T01:47:02.967Z,1.80
2022-08-12T01:47:58.078Z,2.10
2022-08-12T01:48:53.204Z,2.20
2022-08-12T01:49:48.309Z,2.20
2022-08-12T01:50:43.529Z,2.50
2022-08-12T01:52:15.217Z,2.00
2022-08-12T01:52:34.709Z,2.00
2022-08-12T01:53:28.753Z,1.90
2022-08-12T01:54:24.876Z,1.90
2022-08-12T01:55:18.959Z,1.70
2022-08-12T01:56:13.914Z,2.00
2022-08-12T01:57:08.921Z,1.90
2022-08-12T01:58:04.010Z,2.00
2022-08-12T01:58:59.089Z,2.30
2022-08-12T01:59:55.192Z,2.00
2022-08-12T02:00:54.868Z,2.10
2022-08-12T02:01:46.551Z,2.00
2022-08-12T02:02:40.762Z,2.30
2022-08-12T02:03:36.276Z,2.10
2022-08-12T02:04:31.385Z,1.80
2022-08-12T02:05:26.641Z,1.90
2022-08-12T02:06:21.744Z,2.20
2022-08-12T02:07:16.863Z,2.00
2022-08-12T02:08:12.913Z,2.00
2022-08-12T02:09:08.140Z,2.30
2022-08-12T02:10:03.297Z,2.20
2022-08-12T02:10:58.395Z,2.00
2022-08-12T02:11:53.862Z,2.00
2022-08-12T02:12:48.833Z,2.00
2022-08-12T02:13:49.288Z,2.10
2022-08-12T02:14:40.132Z,2.20
2022-08-12T02:15:34.281Z,1.70
2022-08-12T02:16:29.372Z,2.00
2022-08-12T02:17:54.675Z,2.40
2022-08-12T02:18:20.522Z,2.50
2022-08-12T02:19:22.842Z,2.00
2022-08-12T02:20:10.661Z,2.20
2022-08-12T02:21:04.693Z,1.80
2022-08-12T02:21:59.830Z,2.00
2022-08-12T02:22:54.850Z,2.20
2022-08-12T02:23:49.964Z,2.10
2022-08-12T02:24:45.048Z,2.00
2022-08-12T02:25:40.152Z,2.10
2022-08-12T02:26:35.160Z,2.00
2022-08-12T02:27:30.270Z,1.90
2022-08-12T02:28:25.249Z,1.80
2022-08-12T02:29:20.354Z,2.00
2022-08-12T02:30:15.337Z,1.80
2022-08-12T02:31:10.357Z,2.10
2022-08-12T02:32:05.446Z,2.40
2022-08-12T02:33:00.558Z,2.30
2022-08-12T02:33:55.546Z,2.10
2022-08-12T02:34:50.637Z,2.00
2022-08-12T02:35:46.815Z,2.10
2022-08-12T02:36:41.935Z,2.00
2022-08-12T02:37:37.138Z,2.30
2022-08-12T02:38:32.299Z,2.30
2022-08-12T02:39:27.409Z,2.20
2022-08-12T02:40:22.517Z,2.10
2022-08-12T02:41:17.723Z,1.80
2022-08-12T02:42:12.873Z,2.10
2022-08-12T02:43:08.261Z,2.20
2022-08-12T02:44:03.961Z,2.00
2022-08-12T02:44:59.212Z,2.10
2022-08-12T02:45:55.042Z,2.00
2022-08-12T02:46:50.127Z,2.40
2022-08-12T02:47:58.896Z,2.20
2022-08-12T02:48:42.173Z,2.40
2022-08-12T02:49:36.348Z,2.40
2022-08-12T02:50:31.446Z,2.30
2022-08-12T02:51:27.911Z,2.60
2022-08-12T02:52:23.069Z,2.00
2022-08-12T02:53:18.872Z,2.30
2022-08-12T02:54:13.989Z,2.20
2022-08-12T02:55:09.123Z,1.90
2022-08-12T02:56:04.909Z,2.30
2022-08-12T02:57:00.072Z,2.40
2022-08-12T02:57:55.899Z,2.30
2022-08-12T02:58:50.989Z,2.50
2022-08-12T02:59:46.293Z,2.40
2022-08-12T03:00:42.031Z,2.40
2022-08-12T03:01:47.815Z,2.20
2022-08-12T03:02:33.305Z,2.30
2022-08-12T03:03:27.494Z,2.30
2022-08-12T03:04:23.284Z,3.00
2022-08-12T03:05:18.415Z,2.40
2022-08-12T03:06:13.637Z,2.80
2022-08-12T03:07:10.035Z,2.40
2022-08-12T03:08:05.153Z,2.40
2022-08-12T03:09:02.008Z,2.50
2022-08-12T03:10:04.032Z,2.20
2022-08-12T03:10:52.743Z,2.40
2022-08-12T03:11:48.760Z,2.40
2022-08-12T03:12:50.741Z,2.50
2022-08-12T03:13:39.019Z,2.60
2022-08-12T03:14:33.203Z,2.70
2022-08-12T03:15:29.702Z,2.30
2022-08-12T03:16:24.831Z,2.40
2022-08-12T03:17:20.765Z,2.40
2022-08-12T03:18:26.041Z,2.80
2022-08-12T03:19:12.054Z,2.30
2022-08-12T03:20:10.974Z,3.00
2022-08-12T03:21:02.281Z,2.30
2022-08-12T03:22:08.825Z,2.50
2022-08-12T03:22:54.775Z,2.40
2022-08-12T03:23:48.993Z,2.20
2022-08-12T03:24:44.799Z,2.20
2022-08-12T03:25:39.879Z,2.60
2022-08-12T03:26:35.043Z,2.70
2022-08-12T03:27:30.843Z,2.30
2022-08-12T03:28:26.031Z,2.70
2022-08-12T03:29:21.808Z,2.10
2022-08-12T03:30:17.016Z,3.00
2022-08-12T03:31:12.276Z,2.40
2022-08-12T03:32:08.082Z,2.40
2022-08-12T03:33:04.275Z,2.80
2022-08-12T03:34:02.241Z,2.60
2022-08-12T03:34:53.485Z,2.70
2022-08-12T03:35:48.475Z,2.40
2022-08-12T03:36:43.476Z,2.70
2022-08-12T03:37:38.590Z,2.40
2022-08-12T03:38:33.600Z,2.20
2022-08-12T03:39:36.158Z,2.60
2022-08-12T03:40:24.696Z,2.80
2022-08-12T03:41:18.740Z,2.30
2022-08-12T03:42:13.836Z,2.60
2022-08-12T03:43:09.070Z,2.20
2022-08-12T03:44:06.613Z,2.50
2022-08-12T03:45:01.742Z,2.70
2022-08-12T03:45:57.007Z,2.60
2022-08-12T03:46:52.823Z,2.80
2022-08-12T03:47:47.970Z,2.30
2022-08-12T03:48:43.084Z,2.50
2022-08-12T03:49:39.524Z,2.40
2022-08-12T03:50:34.702Z,2.70
2022-08-12T03:51:30.557Z,2.80
2022-08-12T03:52:25.712Z,2.10
2022-08-12T03:53:20.922Z,2.20
2022-08-12T03:54:16.682Z,2.80
2022-08-12T03:55:11.869Z,2.80
2022-08-12T03:56:07.734Z,2.50
2022-08-12T03:57:02.777Z,2.70
2022-08-12T03:57:57.998Z,2.60
2022-08-12T03:58:53.739Z,2.80
2022-08-12T03:59:49.023Z,3.40
2022-08-12T04:00:44.211Z,2.50
2022-08-12T04:01:40.734Z,2.40
2022-08-12T04:02:34.664Z,2.30
2022-08-12T04:03:29.832Z,2.80
2022-08-12T04:04:25.028Z,2.50
2022-08-12T04:05:21.477Z,2.70
2022-08-12T04:06:16.120Z,2.70
2022-08-12T04:07:12.357Z,2.80
2022-08-12T04:08:07.387Z,2.60
2022-08-12T04:09:02.577Z,2.80
2022-08-12T04:09:57.786Z,2.80
2022-08-12T04:10:53.036Z,2.90
2022-08-12T04:11:48.141Z,2.60
2022-08-12T04:12:43.321Z,2.90
2022-08-12T04:13:38.255Z,2.30
2022-08-12T04:14:33.269Z,2.60
2022-08-12T04:15:28.297Z,2.70
2022-08-12T04:16:23.295Z,2.70
2022-08-12T04:17:18.315Z,2.70
2022-08-12T04:18:13.353Z,2.80
2022-08-12T04:19:08.334Z,2.90
2022-08-12T04:20:03.344Z,3.00
2022-08-12T04:20:58.374Z,2.70
2022-08-12T04:22:02.224Z,2.90
2022-08-12T04:22:50.249Z,2.80
2022-08-12T04:23:48.778Z,2.70
2022-08-12T04:24:43.862Z,2.70
2022-08-12T04:25:40.275Z,2.50
2022-08-12T04:26:34.495Z,2.80
2022-08-12T04:27:29.774Z,2.80
2022-08-12T04:28:25.083Z,2.30
2022-08-12T04:29:20.366Z,3.00
2022-08-12T04:30:30.427Z,2.40
2022-08-12T04:31:12.374Z,2.70
2022-08-12T04:32:06.682Z,2.60
2022-08-12T04:33:01.977Z,2.70
2022-08-12T04:33:57.269Z,2.80
2022-08-12T04:34:52.531Z,3.00
2022-08-12T04:35:47.910Z,2.70
2022-08-12T04:36:43.083Z,2.70
2022-08-12T04:37:59.314Z,2.70
2022-08-12T04:38:34.831Z,2.60
2022-08-12T04:39:29.199Z,2.60
2022-08-12T04:40:28.003Z,2.80
2022-08-12T04:41:19.439Z,2.60
2022-08-12T04:42:14.705Z,2.60
2022-08-12T04:44:00.813Z,2.80
2022-08-12T04:44:05.796Z,2.80
2022-08-12T04:44:59.918Z,2.40
2022-08-12T04:45:54.965Z,2.60
2022-08-12T04:46:51.547Z,2.70
2022-08-12T04:47:46.746Z,3.10
2022-08-12T04:48:42.094Z,2.70
2022-08-12T04:49:37.395Z,2.80
2022-08-12T04:50:36.034Z,2.70
2022-08-12T04:51:28.383Z,2.70
2022-08-12T04:52:23.774Z,2.70
2022-08-12T04:53:19.064Z,2.60
2022-08-12T04:54:14.392Z,2.70
2022-08-12T04:55:09.744Z,2.60
2022-08-12T04:56:05.070Z,2.80
2022-08-12T04:57:03.506Z,3.10
2022-08-12T04:57:55.813Z,2.60
2022-08-12T04:58:52.775Z,2.70
2022-08-12T04:59:48.626Z,2.70
2022-08-12T05:00:42.447Z,3.00
2022-08-12T05:01:37.808Z,2.50
2022-08-12T05:02:33.193Z,2.80
2022-08-12T05:03:28.428Z,2.40
2022-08-12T05:04:24.810Z,2.50
2022-08-12T05:05:19.189Z,2.40
2022-08-12T05:06:20.825Z,2.80
2022-08-12T05:07:12.393Z,3.20
2022-08-12T05:08:06.771Z,2.90
2022-08-12T05:09:02.218Z,3.10
2022-08-12T05:10:02.472Z,3.00
2022-08-12T05:10:53.382Z,3.10
2022-08-12T05:11:53.739Z,3.00
2022-08-12T05:12:45.235Z,2.60
2022-08-12T05:13:39.487Z,2.60
2022-08-12T05:14:37.599Z,2.90
2022-08-12T05:15:30.459Z,2.70
2022-08-12T05:16:30.807Z,2.70
2022-08-12T05:17:22.069Z,2.80
2022-08-12T05:18:19.533Z,3.10
2022-08-12T05:19:12.895Z,3.00
2022-08-12T05:20:07.595Z,2.60
2022-08-12T05:21:01.652Z,2.70
2022-08-12T05:21:56.710Z,2.90
2022-08-12T05:22:54.714Z,2.80
2022-08-12T05:23:47.844Z,2.90
2022-08-12T05:24:42.034Z,2.60
2022-08-12T05:25:40.017Z,2.60
2022-08-12T05:26:34.986Z,3.30
2022-08-12T05:27:29.983Z,2.50
2022-08-12T05:28:25.055Z,3.40
2022-08-12T05:30:06.335Z,2.80
2022-08-12T05:30:16.175Z,2.70
2022-08-12T05:31:10.260Z,2.90
2022-08-12T05:32:05.253Z,2.90
2022-08-12T05:33:01.462Z,3.00
2022-08-12T05:33:56.838Z,2.70
2022-08-12T05:34:52.262Z,2.80
2022-08-12T05:35:47.779Z,2.60
2022-08-12T05:36:43.031Z,2.30
2022-08-12T05:37:38.420Z,2.50
2022-08-12T05:38:33.811Z,2.70
2022-08-12T05:39:29.408Z,3.10
2022-08-12T05:40:24.598Z,2.70
2022-08-12T05:41:19.970Z,2.60
2022-08-12T05:42:15.378Z,2.70
2022-08-12T05:43:10.769Z,2.80
2022-08-12T05:44:06.180Z,3.10
2022-08-12T05:45:01.640Z,2.80
2022-08-12T05:45:56.990Z,3.10
2022-08-12T05:46:52.358Z,2.70
2022-08-12T05:47:53.545Z,2.60
2022-08-12T05:48:45.397Z,2.80
2022-08-12T05:49:39.706Z,3.40
2022-08-12T05:50:35.083Z,2.60
2022-08-12T05:51:39.947Z,2.80
2022-08-12T05:52:26.975Z,2.80
2022-08-12T05:53:21.458Z,2.30
2022-08-12T05:54:17.170Z,2.10
2022-08-12T05:55:12.219Z,2.40
2022-08-12T05:56:07.406Z,2.30
2022-08-12T05:57:02.473Z,2.30
2022-08-12T05:57:57.492Z,2.00
2022-08-12T05:58:52.505Z,2.20
2022-08-12T05:59:47.575Z,2.40
2022-08-12T06:00:42.608Z,2.30
2022-08-12T06:02:10.787Z,2.10
2022-08-12T06:02:33.723Z,2.20
2022-08-12T06:03:27.859Z,2.30
2022-08-12T06:04:22.907Z,2.20
2022-08-12T06:05:17.949Z,2.10
2022-08-12T06:06:12.965Z,2.20
2022-08-12T06:08:00.869Z,2.10
2022-08-12T06:08:05.002Z,2.00
2022-08-12T06:08:59.339Z,2.20
2022-08-12T06:09:54.801Z,2.40
2022-08-12T06:10:50.484Z,1.90
2022-08-12T06:12:05.869Z,2.20
2022-08-12T06:12:42.391Z,2.20
2022-08-12T06:13:54.551Z,1.90
2022-08-12T06:14:33.169Z,2.30
2022-08-12T06:15:28.116Z,2.10
2022-08-12T06:16:23.534Z,2.20
2022-08-12T06:17:18.988Z,2.10
2022-08-12T06:18:16.427Z,2.20
2022-08-12T06:19:09.119Z,2.20
2022-08-12T06:20:26.335Z,2.10
2022-08-12T06:21:02.073Z,2.50
2022-08-12T06:21:54.232Z,1.90
2022-08-12T06:22:49.247Z,2.30
2022-08-12T06:23:45.421Z,2.20
2022-08-12T06:24:41.700Z,2.30
2022-08-12T06:25:37.160Z,2.30
2022-08-12T06:26:32.576Z,2.00
2022-08-12T06:27:28.085Z,2.20
2022-08-12T06:28:23.534Z,2.10
2022-08-12T06:30:07.332Z,2.70
2022-08-12T06:30:27.699Z,2.30
2022-08-12T06:31:27.345Z,2.50
2022-08-12T06:32:06.017Z,1.90
2022-08-12T06:33:18.577Z,1.90
2022-08-12T06:34:01.160Z,2.10
2022-08-12T06:35:25.621Z,2.30
2022-08-12T06:35:47.843Z,2.30
2022-08-12T06:36:40.425Z,2.30
2022-08-12T06:37:35.545Z,2.60
2022-08-12T06:38:30.602Z,2.40
2022-08-12T06:39:25.677Z,2.10
2022-08-12T06:40:21.093Z,2.40
2022-08-12T06:41:16.587Z,2.00
2022-08-12T06:42:33.095Z,2.00
2022-08-12T06:43:08.450Z,1.80
2022-08-12T06:44:07.044Z,2.20
2022-08-12T06:44:57.832Z,2.20
2022-08-12T06:45:52.873Z,2.40
2022-08-12T06:46:47.909Z,2.00
2022-08-12T06:47:46.051Z,2.60
2022-08-12T06:48:41.123Z,2.20
2022-08-12T06:49:36.160Z,2.10
2022-08-12T06:50:31.229Z,2.40
2022-08-12T06:51:26.348Z,1.90
2022-08-12T06:52:21.380Z,2.10
2022-08-12T06:53:16.427Z,2.80
2022-08-12T06:54:11.466Z,2.40
2022-08-12T06:55:06.507Z,2.50
2022-08-12T06:56:01.646Z,2.20
2022-08-12T06:57:57.416Z,2.00
2022-08-12T06:58:05.187Z,2.40
2022-08-12T06:58:47.864Z,1.90
2022-08-12T06:59:42.098Z,2.20
2022-08-12T07:00:37.622Z,2.20
2022-08-12T07:01:33.044Z,2.20
2022-08-12T07:02:28.547Z,2.60
2022-08-12T07:03:23.954Z,2.30
2022-08-12T07:04:36.343Z,2.80
2022-08-12T07:05:15.957Z,2.20
2022-08-12T07:06:10.437Z,2.30
2022-08-12T07:07:05.930Z,2.10
2022-08-12T07:08:01.392Z,2.10
2022-08-12T07:08:57.852Z,2.10
2022-08-12T07:10:04.158Z,2.20
2022-08-12T07:10:48.234Z,2.40
2022-08-12T07:11:42.376Z,2.30
2022-08-12T07:12:38.485Z,1.90
2022-08-12T07:13:32.491Z,2.40
2022-08-12T07:14:27.517Z,2.00
2022-08-12T07:15:22.590Z,2.30
2022-08-12T07:16:17.656Z,2.20
2022-08-12T07:17:13.224Z,2.10
2022-08-12T07:18:08.570Z,2.30
2022-08-12T07:19:04.001Z,2.90
2022-08-12T07:20:03.922Z,2.40
2022-08-12T07:20:55.910Z,2.40
2022-08-12T07:22:02.392Z,2.40
2022-08-12T07:22:46.850Z,2.00
2022-08-12T07:23:41.270Z,2.20
2022-08-12T07:24:36.772Z,2.00
2022-08-12T07:25:40.431Z,2.30
2022-08-12T07:26:32.444Z,2.40
2022-08-12T07:27:26.907Z,2.40
2022-08-12T07:28:22.319Z,2.40
2022-08-12T07:29:17.767Z,2.30
2022-08-12T07:30:13.281Z,2.20
2022-08-12T07:31:08.869Z,2.30
2022-08-12T07:32:04.187Z,2.40
2022-08-12T07:33:01.779Z,2.30
2022-08-12T07:33:55.243Z,1.90
2022-08-12T07:34:50.722Z,1.90
2022-08-12T07:35:46.117Z,2.10
2022-08-12T07:36:41.767Z,2.50
2022-08-12T07:37:37.330Z,2.40
2022-08-12T07:38:32.743Z,2.30
2022-08-12T07:39:28.310Z,2.00
2022-08-12T07:40:23.381Z,2.60
2022-08-12T07:41:18.378Z,2.30
2022-08-12T07:42:13.421Z,2.00
2022-08-12T07:43:08.669Z,2.20
2022-08-12T07:44:04.794Z,2.50
2022-08-12T07:44:58.669Z,1.80
2022-08-12T07:45:53.866Z,2.10
2022-08-12T07:46:48.834Z,2.60
2022-08-12T07:47:43.998Z,2.20
2022-08-12T07:48:39.159Z,2.30
2022-08-12T07:49:34.174Z,2.10
2022-08-12T07:50:30.172Z,2.10
2022-08-12T07:51:24.750Z,2.50
2022-08-12T07:52:19.432Z,2.60
2022-08-12T07:53:14.474Z,2.20
2022-08-12T07:54:09.513Z,2.00
2022-08-12T07:55:04.535Z,1.90
2022-08-12T07:55:59.602Z,2.00
2022-08-12T07:56:54.991Z,2.20
2022-08-12T07:57:50.574Z,2.10
2022-08-12T07:58:47.194Z,2.00
2022-08-12T07:59:40.637Z,2.00
2022-08-12T08:00:35.767Z,2.00
2022-08-12T08:01:30.818Z,2.10
2022-08-12T08:02:27.052Z,2.50
2022-08-12T08:03:20.840Z,2.10
2022-08-12T08:04:19.038Z,2.10
2022-08-12T08:05:10.890Z,2.30
2022-08-12T08:06:05.895Z,2.10
2022-08-12T08:07:01.913Z,2.30
2022-08-12T08:07:55.987Z,2.20
2022-08-12T08:08:50.981Z,2.50
2022-08-12T08:09:46.389Z,1.90
2022-08-12T08:10:41.951Z,2.10
2022-08-12T08:11:37.646Z,2.00
2022-08-12T08:12:32.477Z,2.30
2022-08-12T08:13:27.479Z,2.00
2022-08-12T08:14:22.619Z,1.90
2022-08-12T08:15:17.657Z,2.40
2022-08-12T08:16:12.646Z,2.40
2022-08-12T08:17:07.771Z,2.20
2022-08-12T08:18:02.877Z,2.30
2022-08-12T08:19:00.448Z,2.00
2022-08-12T08:20:04.102Z,1.80
2022-08-12T08:20:51.627Z,2.10
2022-08-12T08:23:10.692Z,2.40
2022-08-12T08:24:06.166Z,2.40
2022-08-12T08:25:01.459Z,2.40
2022-08-12T08:25:56.921Z,2.80
2022-08-12T08:26:52.462Z,2.30
2022-08-12T08:27:47.978Z,2.50
2022-08-12T08:28:43.553Z,2.40
2022-08-12T08:29:39.060Z,2.10
2022-08-12T08:30:34.500Z,2.20
2022-08-12T08:31:30.039Z,2.20
2022-08-12T08:32:25.550Z,2.50
2022-08-12T08:34:04.226Z,2.40
2022-08-12T08:34:49.267Z,2.40
2022-08-12T08:35:12.967Z,2.10
2022-08-12T08:36:10.826Z,2.60
2022-08-12T08:37:07.549Z,2.30
2022-08-12T08:37:58.389Z,2.80
2022-08-12T08:38:58.602Z,2.20
2022-08-12T08:39:50.446Z,2.40
2022-08-12T08:40:44.919Z,2.30
2022-08-12T08:42:14.086Z,2.20
2022-08-12T08:42:36.839Z,2.20
2022-08-12T08:43:43.211Z,2.20
2022-08-12T08:44:27.726Z,2.40
2022-08-12T08:45:22.099Z,2.40
2022-08-12T08:46:17.621Z,2.30
2022-08-12T08:47:13.159Z,2.30
2022-08-12T08:48:08.569Z,2.20
2022-08-12T08:49:04.230Z,2.20
2022-08-12T08:49:59.630Z,2.90
2022-08-12T08:51:04.456Z,2.50
2022-08-12T08:51:51.750Z,2.30
2022-08-12T08:52:46.332Z,2.00
2022-08-12T08:53:41.694Z,2.50
2022-08-12T08:54:37.225Z,2.30
2022-08-12T08:55:54.268Z,2.20
2022-08-12T08:56:29.219Z,2.20
2022-08-12T08:57:23.706Z,2.30
2022-08-12T08:58:20.104Z,2.70
2022-08-12T08:59:14.375Z,2.30
2022-08-12T09:00:09.890Z,2.50
2022-08-12T09:01:06.395Z,2.10
2022-08-12T09:02:00.811Z,2.50
2022-08-12T09:02:59.263Z,2.40
2022-08-12T09:05:08.432Z,2.40
2022-08-12T09:05:13.510Z,2.20
2022-08-12T09:06:02.138Z,2.40
2022-08-12T09:06:38.832Z,2.30
2022-08-12T09:07:51.542Z,2.50
2022-08-12T09:08:29.702Z,2.60
2022-08-12T09:09:24.072Z,2.20
2022-08-12T09:10:30.617Z,2.40
2022-08-12T09:12:06.401Z,2.20
2022-08-12T09:12:13.273Z,2.20
2022-08-12T09:13:06.283Z,2.70
2022-08-12T09:14:12.411Z,2.70
2022-08-12T09:14:57.801Z,2.40
2022-08-12T09:16:50.116Z,2.10
2022-08-12T09:17:43.449Z,2.50
2022-08-12T09:18:38.531Z,2.40
2022-08-12T09:19:33.931Z,2.30
2022-08-12T09:20:29.649Z,2.50
2022-08-12T09:21:25.018Z,2.20
2022-08-12T09:22:20.835Z,1.90
2022-08-12T09:23:59.956Z,2.00
2022-08-12T09:24:11.956Z,2.40
2022-08-12T09:25:06.443Z,2.50
2022-08-12T09:26:58.939Z,2.40
2022-08-12T09:28:03.862Z,2.40
2022-08-12T09:28:49.327Z,2.60
2022-08-12T09:30:09.750Z,2.10
2022-08-12T09:30:42.151Z,2.40
2022-08-12T09:32:07.740Z,2.60
2022-08-12T09:33:04.962Z,2.50
2022-08-12T09:34:25.933Z,2.40
2022-08-12T09:34:26.426Z,2.50
2022-08-12T09:35:22.113Z,2.10
2022-08-12T09:36:12.970Z,2.40
2022-08-12T09:37:18.850Z,2.50
2022-08-12T09:38:03.901Z,2.40
2022-08-12T09:38:58.941Z,2.20
2022-08-12T09:40:06.575Z,2.10
2022-08-12T09:41:01.780Z,2.10
2022-08-12T09:42:09.882Z,2.20
2022-08-12T09:42:54.346Z,2.20
2022-08-12T09:43:36.367Z,2.40
2022-08-12T09:44:38.886Z,2.50
2022-08-12T09:46:06.582Z,2.60
2022-08-12T09:46:25.427Z,2.50
2022-08-12T09:47:17.128Z,2.60
2022-08-12T09:48:20.278Z,2.30
2022-08-12T09:49:16.287Z,2.20
2022-08-12T09:50:04.397Z,2.80
2022-08-12T09:50:59.429Z,2.70
2022-08-12T09:51:54.187Z,2.40
2022-08-12T09:52:49.713Z,2.50
2022-08-12T09:53:45.743Z,2.30
2022-08-12T09:54:42.941Z,2.30
2022-08-12T09:55:59.575Z,2.00
2022-08-12T09:56:59.581Z,2.30
2022-08-12T09:58:45.198Z,2.20
2022-08-12T09:58:58.540Z,2.00
2022-08-12T10:00:15.920Z,1.90
2022-08-12T10:00:19.489Z,1.90
2022-08-12T10:01:14.841Z,1.70
2022-08-12T10:02:42.675Z,2.00
2022-08-12T10:03:01.100Z,1.90
2022-08-12T10:04:03.873Z,2.10
2022-08-12T10:04:51.535Z,1.90
2022-08-12T10:06:20.326Z,1.90
2022-08-12T10:06:54.758Z,1.90
2022-08-12T10:07:39.391Z,2.30
2022-08-12T10:08:31.661Z,2.00
2022-08-12T10:09:57.373Z,1.90
2022-08-12T10:10:25.104Z,2.00
2022-08-12T10:11:20.460Z,2.00
2022-08-12T10:12:13.397Z,2.00
2022-08-12T10:13:11.532Z,2.00
2022-08-12T10:14:04.308Z,2.10
2022-08-12T10:14:59.674Z,2.20
2022-08-12T10:16:02.121Z,1.90
2022-08-12T10:16:51.574Z,2.30
2022-08-12T10:18:05.915Z,2.70
2022-08-12T10:18:52.011Z,2.20
2022-08-12T10:19:38.089Z,2.00
2022-08-12T10:20:32.485Z,2.30
2022-08-12T10:21:36.380Z,2.20
2022-08-12T10:22:40.362Z,2.20
2022-08-12T10:23:19.642Z,1.90
2022-08-12T10:24:15.253Z,2.00
2022-08-12T10:25:17.109Z,2.00
2022-08-12T10:26:37.976Z,1.90
2022-08-12T10:27:06.090Z,1.60
2022-08-12T10:28:03.940Z,1.60
2022-08-12T10:29:02.062Z,1.60
2022-08-12T10:30:39.036Z,2.00
2022-08-12T10:30:46.908Z,1.70
2022-08-12T10:31:47.492Z,2.10
2022-08-12T10:32:44.747Z,1.90
2022-08-12T10:33:31.565Z,1.60
2022-08-12T10:34:26.476Z,1.80
2022-08-12T10:35:19.599Z,1.70
2022-08-12T10:36:15.171Z,1.80
2022-08-12T10:38:07.369Z,2.10
2022-08-12T10:38:33.655Z,2.00
2022-08-12T10:39:02.597Z,1.70
2022-08-12T10:40:03.137Z,1.90
2022-08-12T10:40:53.492Z,1.70
2022-08-12T10:41:57.955Z,1.90
2022-08-12T10:42:45.981Z,1.70
2022-08-12T10:43:55.005Z,1.80
2022-08-12T10:44:35.295Z,1.70
2022-08-12T10:45:30.579Z,1.70
2022-08-12T10:46:31.191Z,1.60
2022-08-12T10:47:26.027Z,1.60
2022-08-12T10:48:21.184Z,2.10
2022-08-12T10:50:02.536Z,1.80
2022-08-12T10:50:35.866Z,1.60
2022-08-12T10:51:49.052Z,1.50
2022-08-12T10:52:32.892Z,1.70
2022-08-12T10:52:54.375Z,1.70
2022-08-12T10:53:48.757Z,1.80
2022-08-12T10:54:44.344Z,1.80
2022-08-12T10:55:40.654Z,1.70
2022-08-12T10:56:35.496Z,1.70
2022-08-12T10:58:15.401Z,1.60
2022-08-12T10:58:30.898Z,1.50
2022-08-12T10:59:21.453Z,1.80
2022-08-12T11:00:34.447Z,1.90
2022-08-12T11:01:49.636Z,1.90
2022-08-12T11:04:19.846Z,1.70
2022-08-12T11:04:25.696Z,1.40
2022-08-12T11:04:28.596Z,1.50
2022-08-12T11:04:55.739Z,1.90
2022-08-12T11:07:07.347Z,1.70
2022-08-12T11:07:10.016Z,1.80
2022-08-12T11:08:34.449Z,1.70
2022-08-12T11:08:43.202Z,1.60
2022-08-12T11:09:41.719Z,1.70
2022-08-12T11:10:28.153Z,1.60
2022-08-12T11:12:07.662Z,1.20
2022-08-12T11:12:55.450Z,1.40
2022-08-12T11:13:14.582Z,1.60
2022-08-12T11:14:49.862Z,1.50
2022-08-12T11:15:19.320Z,1.60
2022-08-12T11:16:03.575Z,1.20
2022-08-12T11:17:33.982Z,1.40
2022-08-12T11:17:53.677Z,1.30
2022-08-12T11:18:45.953Z,1.40
2022-08-12T11:19:41.618Z,1.40
2022-08-12T11:20:36.860Z,1.60
2022-08-12T11:21:56.688Z,1.70
2022-08-12T11:22:28.722Z,1.40
2022-08-12T11:23:24.616Z,1.60
2022-08-12T11:24:31.706Z,1.50
2022-08-12T11:25:15.263Z,1.60
2022-08-12T11:26:09.686Z,1.40
2022-08-12T11:27:07.732Z,1.70
2022-08-12T11:28:00.653Z,1.60
2022-08-12T11:28:59.277Z,1.50
2022-08-12T11:30:02.137Z,1.90
2022-08-12T11:30:47.910Z,1.20
2022-08-12T11:31:56.118Z,1.40
2022-08-12T11:32:39.564Z,1.10
2022-08-12T11:34:06.139Z,1.60
2022-08-12T11:34:53.583Z,1.50
2022-08-12T11:35:24.831Z,1.60
2022-08-12T11:36:22.148Z,1.30
2022-08-12T11:37:25.917Z,1.40
2022-08-12T11:38:11.187Z,1.60
2022-08-12T11:39:05.717Z,1.90
2022-08-12T11:40:01.042Z,1.40
2022-08-12T11:40:56.491Z,1.50
2022-08-12T11:41:51.925Z,1.50
2022-08-12T11:42:47.384Z,1.50
2022-08-12T11:43:50.384Z,1.50
2022-08-12T11:44:43.157Z,1.70
2022-08-12T11:45:38.933Z,1.40
2022-08-12T11:46:30.552Z,1.70
2022-08-12T11:47:24.556Z,1.50
2022-08-12T11:48:20.059Z,1.40
2022-08-12T11:49:26.821Z,1.80
2022-08-12T11:50:18.917Z,1.30
2022-08-12T11:51:08.022Z,1.50
2022-08-12T11:52:01.545Z,1.60
2022-08-12T11:52:57.314Z,1.30
2022-08-12T11:53:59.168Z,1.60
2022-08-12T11:54:50.995Z,1.60
2022-08-12T11:55:45.339Z,1.40
2022-08-12T11:56:41.942Z,1.60
2022-08-12T11:58:19.824Z,1.60
2022-08-12T11:59:41.074Z,1.80
2022-08-12T12:02:02.279Z,1.60
2022-08-12T12:02:02.602Z,1.10
2022-08-12T12:02:13.845Z,1.40
2022-08-12T12:03:07.603Z,1.50
2022-08-12T12:04:02.167Z,1.80
2022-08-12T12:04:57.609Z,1.70
2022-08-12T12:05:53.077Z,1.60
2022-08-12T12:06:52.899Z,1.90
2022-08-12T12:08:38.649Z,1.50
2022-08-12T12:08:43.346Z,1.40
2022-08-12T12:09:52.434Z,1.90
2022-08-12T12:10:31.170Z,1.40
2022-08-12T12:11:25.617Z,1.70
2022-08-12T12:12:21.420Z,1.20
2022-08-12T12:13:23.148Z,1.30
2022-08-12T12:14:13.102Z,1.50
2022-08-12T12:15:07.550Z,1.80
2022-08-12T12:16:05.956Z,1.90
2022-08-12T12:16:58.534Z,1.50
2022-08-12T12:17:55.627Z,1.70
2022-08-12T12:18:49.422Z,1.80
2022-08-12T12:19:46.043Z,1.60
2022-08-12T12:20:40.333Z,1.50